createdAt,value
2018-04-23T00:04:20.405Z,14.20
2018-04-23T00:10:24.760Z,14.20
2018-04-23T00:16:30.453Z,14.10
2018-04-23T00:22:34.812Z,14.00
2018-04-23T00:28:39.163Z,14.10
2018-04-23T00:34:43.529Z,14.00
2018-04-23T00:40:47.885Z,14.00
2018-04-23T00:46:52.235Z,13.80
2018-04-23T00:53:14.410Z,13.80
2018-04-23T00:59:18.754Z,13.70
2018-04-23T01:05:23.130Z,13.60
2018-04-23T01:11:27.479Z,13.50
2018-04-23T01:17:31.820Z,13.40
2018-04-23T01:23:36.190Z,13.30
2018-04-23T01:29:40.541Z,13.30
2018-04-23T01:35:44.883Z,13.30
2018-04-23T01:41:49.998Z,13.20
2018-04-23T01:47:54.346Z,13.20
2018-04-23T01:53:58.698Z,13.20
2018-04-23T02:00:03.065Z,13.10
2018-04-23T02:06:08.162Z,13.10
2018-04-23T02:12:12.507Z,13.10
2018-04-23T02:18:16.882Z,13.30
2018-04-23T02:24:21.229Z,13.40
2018-04-23T02:30:25.590Z,13.50
2018-04-23T02:36:30.703Z,13.70
2018-04-23T02:42:35.062Z,13.70
2018-04-23T02:48:39.423Z,13.80
2018-04-23T02:54:44.554Z,13.80
2018-04-23T03:00:48.896Z,13.80
2018-04-23T03:06:53.236Z,13.80
2018-04-23T03:12:57.580Z,13.80
2018-04-23T03:19:01.934Z,13.80
2018-04-23T03:25:06.281Z,13.80
2018-04-23T03:31:10.648Z,13.70
2018-04-23T03:37:15.772Z,13.80
2018-04-23T03:43:20.118Z,13.80
2018-04-23T03:49:24.463Z,13.80
2018-04-23T03:55:28.801Z,13.90
2018-04-23T04:01:33.152Z,13.90
2018-04-23T04:07:38.261Z,14.00
2018-04-23T04:14:00.328Z,14.00
2018-04-23T04:20:04.693Z,14.00
2018-04-23T04:26:09.027Z,13.80
2018-04-23T04:32:13.376Z,13.80
2018-04-23T04:38:19.335Z,13.70
2018-04-23T04:44:23.676Z,13.70
2018-04-23T04:50:28.037Z,13.80
2018-04-23T04:56:32.387Z,13.80
2018-04-23T05:02:36.726Z,13.90
2018-04-23T05:08:41.840Z,14.10
2018-04-23T05:14:46.195Z,14.00
2018-04-23T05:20:50.647Z,14.10
2018-04-23T05:26:54.993Z,14.30
2018-04-23T05:32:59.346Z,14.40
2018-04-23T05:39:03.690Z,14.50
2018-04-23T05:45:08.061Z,14.50
2018-04-23T05:51:12.417Z,14.50
2018-04-23T05:57:16.765Z,14.60
2018-04-23T06:03:21.119Z,14.60
2018-04-23T06:09:25.475Z,14.70
2018-04-23T06:15:29.824Z,14.80
2018-04-23T06:21:34.217Z,14.90
2018-04-23T06:27:38.650Z,15.00
2018-04-23T06:33:43.083Z,15.00
2018-04-23T06:39:48.188Z,15.10
2018-04-23T06:45:52.548Z,15.00
2018-04-23T06:51:56.908Z,15.20
2018-04-23T06:58:02.025Z,15.30
2018-04-23T07:04:06.373Z,15.30
2018-04-23T07:10:10.714Z,15.30
2018-04-23T07:16:15.061Z,15.40
2018-04-23T07:22:19.404Z,15.30
2018-04-23T07:28:24.575Z,15.30
2018-04-23T07:34:28.913Z,15.30
2018-04-23T07:40:34.044Z,15.70
2018-04-23T07:46:38.398Z,15.70
2018-04-23T07:52:42.744Z,16.00
2018-04-23T07:58:47.096Z,16.10
2018-04-23T08:04:51.453Z,16.20
2018-04-23T08:10:55.799Z,16.50
2018-04-23T08:17:01.025Z,17.80
2018-04-23T08:23:05.376Z,17.70
2018-04-23T08:29:09.711Z,18.00
2018-04-23T08:35:14.071Z,18.40
2018-04-23T08:41:19.197Z,17.80
2018-04-23T08:47:23.541Z,17.80
2018-04-23T08:53:27.900Z,17.80
2018-04-23T08:59:32.282Z,18.10
2018-04-23T09:05:36.629Z,18.40
2018-04-23T09:11:40.997Z,18.60
2018-04-23T09:17:45.354Z,18.60
2018-04-23T09:23:49.705Z,18.60
2018-04-23T09:29:54.049Z,18.80
2018-04-23T09:35:58.416Z,19.20
2018-04-23T09:42:03.529Z,19.00
2018-04-23T09:48:07.882Z,19.00
2018-04-23T09:54:12.243Z,18.60
2018-04-23T10:00:22.041Z,18.90
2018-04-23T10:06:25.687Z,18.90
2018-04-23T10:12:30.562Z,18.50
2018-04-23T10:18:34.911Z,18.50
2018-04-23T10:24:39.260Z,19.40
2018-04-23T10:30:43.608Z,20.50
2018-04-23T10:36:48.842Z,21.20
2018-04-23T10:42:53.180Z,21.20
2018-04-23T10:48:57.538Z,21.60
2018-04-23T10:55:01.884Z,21.70
2018-04-23T11:01:06.237Z,20.60
2018-04-23T11:07:10.570Z,20.50
2018-04-23T11:13:14.961Z,20.70
2018-04-23T11:19:19.307Z,20.50
2018-04-23T11:25:23.653Z,20.90
2018-04-23T11:31:28.005Z,20.60
2018-04-23T11:37:32.375Z,20.30
2018-04-23T11:43:36.724Z,20.10
2018-04-23T11:49:41.068Z,20.30
2018-04-23T11:55:46.177Z,19.80
2018-04-23T12:01:50.547Z,19.80
2018-04-23T12:07:54.894Z,19.80
2018-04-23T12:13:59.238Z,19.80
2018-04-23T12:20:03.573Z,20.70
2018-04-23T13:14:14.949Z,22.20
2018-04-23T13:20:19.290Z,23.30
2018-04-23T13:26:24.394Z,23.50
2018-04-23T13:32:29.521Z,23.30
2018-04-23T13:38:34.161Z,23.30
2018-04-23T13:44:38.492Z,22.60
2018-04-23T13:50:42.849Z,22.30
2018-04-23T13:56:47.197Z,22.60
2018-04-23T14:02:51.562Z,23.00
2018-04-23T14:08:56.679Z,23.20
2018-04-23T14:15:01.036Z,23.20
2018-04-23T14:21:05.392Z,23.50
2018-04-23T14:27:09.753Z,23.30
2018-04-23T14:33:14.136Z,23.90
2018-04-23T14:39:19.256Z,21.30
2018-04-23T14:45:23.668Z,21.30
2018-04-23T14:51:27.990Z,20.60
2018-04-23T14:57:32.352Z,20.70
2018-04-23T15:03:36.720Z,20.60
2018-04-23T15:09:41.044Z,20.00
2018-04-23T15:15:45.405Z,20.10
2018-04-23T15:21:49.750Z,22.00
2018-04-23T15:27:54.096Z,22.20
2018-04-23T15:33:58.431Z,22.30
2018-04-23T15:40:02.765Z,22.10
2018-04-23T15:46:07.110Z,22.20
2018-04-23T15:52:11.462Z,22.80
2018-04-23T15:58:15.799Z,23.50
2018-04-23T16:04:20.149Z,23.00
2018-04-23T16:10:24.502Z,22.90
2018-04-23T16:16:29.599Z,21.00
2018-04-23T16:22:33.948Z,20.90
2018-04-23T16:28:38.297Z,21.10
2018-04-23T16:34:42.642Z,20.60
2018-04-23T16:40:46.982Z,20.50
2018-04-23T16:46:51.349Z,21.20
2018-04-23T16:52:55.685Z,20.20
2018-04-23T16:59:00.028Z,19.30
2018-04-23T17:05:04.370Z,18.70
2018-04-23T17:11:08.734Z,18.20
2018-04-23T17:17:13.829Z,18.40
2018-04-23T17:23:18.175Z,18.40
2018-04-23T17:29:22.564Z,18.00
2018-04-23T17:35:26.889Z,17.50
2018-04-23T17:41:31.232Z,17.20
2018-04-23T17:47:35.631Z,17.00
2018-04-23T17:53:40.722Z,17.40
2018-04-23T17:59:45.063Z,17.30
2018-04-23T18:05:49.395Z,17.50
2018-04-23T18:11:53.736Z,17.40
2018-04-23T18:17:58.090Z,17.10
2018-04-23T18:24:02.433Z,16.90
2018-04-23T18:30:06.800Z,16.50
2018-04-23T18:36:11.919Z,16.00
2018-04-23T18:42:16.282Z,15.90
2018-04-23T18:48:20.630Z,15.70
2018-04-23T18:54:25.740Z,15.20
2018-04-23T19:00:30.068Z,15.20
2018-04-23T19:06:34.422Z,15.20
2018-04-23T19:12:38.766Z,15.00
2018-04-23T19:18:43.118Z,14.80
2018-04-23T19:24:47.469Z,14.50
2018-04-23T19:30:51.799Z,14.30
2018-04-23T19:36:56.181Z,14.10
2018-04-23T19:43:01.281Z,13.80
2018-04-23T19:49:05.618Z,13.80
2018-04-23T19:55:09.963Z,13.50
2018-04-23T20:01:14.309Z,13.20
2018-04-23T20:07:18.689Z,13.00
2018-04-23T20:13:23.042Z,12.80
2018-04-23T20:19:28.144Z,12.60
2018-04-23T20:25:32.482Z,12.50
2018-04-23T20:31:36.826Z,12.50
2018-04-23T20:37:41.185Z,12.30
2018-04-23T20:43:45.530Z,12.20
2018-04-23T20:49:49.867Z,12.10
2018-04-23T20:55:54.208Z,11.90
2018-04-23T21:01:58.561Z,11.80
2018-04-23T21:08:02.916Z,11.60
2018-04-23T21:14:08.034Z,11.40
2018-04-23T21:20:12.368Z,11.40
2018-04-23T21:26:16.741Z,11.20
2018-04-23T21:32:21.094Z,11.20
2018-04-23T21:38:26.208Z,11.00
2018-04-23T21:44:30.551Z,11.00
2018-04-23T21:50:34.893Z,11.10
2018-04-23T21:56:39.230Z,11.00
2018-04-23T22:02:43.664Z,11.00
2018-04-23T22:08:47.972Z,10.90
2018-04-23T22:14:53.099Z,10.70
2018-04-23T22:20:57.455Z,10.60
2018-04-23T22:27:01.796Z,10.70
2018-04-23T22:33:06.132Z,10.70
2018-04-23T22:39:10.493Z,10.60
2018-04-23T22:45:15.609Z,10.60
2018-04-23T22:51:19.972Z,10.50
2018-04-23T22:57:24.323Z,10.50
2018-04-23T23:03:29.530Z,10.30
2018-04-23T23:09:33.859Z,10.30
2018-04-23T23:15:38.224Z,10.20
2018-04-23T23:21:42.623Z,10.20
2018-04-23T23:27:47.759Z,10.00
2018-04-23T23:33:52.109Z,10.00
2018-04-23T23:39:57.228Z,9.90
2018-04-23T23:46:01.577Z,9.90
2018-04-23T23:52:05.938Z,9.90
2018-04-23T23:58:10.275Z,9.80
